Time;durP1;ratioP1;P1;durP2;ratioP2;P2;SDS_P1;SDS_P2;PMS_P1;PMS_P2;Temp;Humidity;BMP_temperature;BMP_pressure;BME280_temperature;BME280_humidity;BME280_pressure;Samples;Min_cycle;Max_cycle;Signal;HPM_P1;HPM_P2
2022/03/29 00:00:08;;;;;;;56.53;33.60;;;7.90;99.90;;;;;;5071426;28;20013;-75
2022/03/29 00:02:33;;;;;;;54.00;32.88;;;7.90;99.90;;;;;;5070940;28;20071;-75
2022/03/29 00:05:04;;;;;;;55.97;33.03;;;7.90;99.90;;;;;;5071367;28;20036;-75
2022/03/29 00:07:34;;;;;;;55.78;32.40;;;7.90;99.90;;;;;;5071105;28;20080;-75
2022/03/29 00:10:01;;;;;;;68.28;34.45;;;8.00;99.90;;;;;;5070773;28;20384;-74
2022/03/29 00:12:27;;;;;;;55.83;33.97;;;7.90;99.90;;;;;;5071484;28;20035;-75
2022/03/29 00:14:53;;;;;;;56.80;34.72;;;8.00;99.90;;;;;;5071769;28;20025;-75
2022/03/29 00:17:18;;;;;;;64.43;35.67;;;8.00;99.90;;;;;;5074199;28;20493;-75
2022/03/29 00:19:44;;;;;;;60.00;36.38;;;8.00;99.90;;;;;;5075176;28;20490;-75
2022/03/29 00:22:13;;;;;;;56.05;34.00;;;8.00;99.90;;;;;;5074776;28;20025;-75
2022/03/29 00:24:38;;;;;;;63.17;35.22;;;7.90;99.90;;;;;;5074664;28;20032;-75
2022/03/29 00:27:05;;;;;;;58.75;33.08;;;8.10;99.90;;;;;;5075019;28;20025;-75
2022/03/29 00:29:31;;;;;;;65.43;35.67;;;8.10;99.90;;;;;;5074606;28;20035;-74
2022/03/29 00:31:56;;;;;;;61.97;35.20;;;8.00;99.90;;;;;;5074414;28;20037;-75
2022/03/29 00:34:22;;;;;;;67.13;34.78;;;8.00;99.90;;;;;;5074655;28;20158;-75
2022/03/29 00:36:48;;;;;;;63.70;36.42;;;8.00;99.90;;;;;;5074814;28;20112;-75
2022/03/29 00:39:13;;;;;;;59.45;34.28;;;8.00;99.90;;;;;;5073978;28;20063;-75
2022/03/29 00:41:39;;;;;;;60.45;33.80;;;8.00;99.90;;;;;;5074967;28;20468;-75
2022/03/29 00:44:06;;;;;;;67.40;36.40;;;8.10;99.90;;;;;;5074863;28;20380;-75
2022/03/29 00:46:32;;;;;;;64.53;34.33;;;8.10;99.90;;;;;;5073992;28;20028;-75
2022/03/29 00:48:57;;;;;;;64.93;35.08;;;8.10;99.90;;;;;;5074772;28;20024;-75
2022/03/29 00:51:23;;;;;;;65.78;34.92;;;8.00;99.90;;;;;;5074224;28;20104;-75
2022/03/29 00:53:49;;;;;;;63.03;34.58;;;8.20;99.90;;;;;;5074093;28;20020;-75
2022/03/29 00:56:19;;;;;;;66.18;33.95;;;8.10;99.90;;;;;;5074403;28;20090;-75
2022/03/29 00:58:45;;;;;;;62.03;31.03;;;8.00;99.90;;;;;;5074020;28;20021;-75
2022/03/29 01:01:11;;;;;;;63.38;33.60;;;8.00;99.90;;;;;;5074108;28;20801;-75
2022/03/29 01:03:37;;;;;;;58.00;31.02;;;8.00;99.90;;;;;;5074321;28;20438;-75
2022/03/29 01:06:02;;;;;;;59.13;32.67;;;8.00;99.90;;;;;;5073518;28;20028;-75
2022/03/29 01:08:28;;;;;;;65.85;33.85;;;8.00;99.90;;;;;;5073931;28;20396;-75
2022/03/29 01:10:54;;;;;;;64.13;34.05;;;8.00;99.90;;;;;;5074495;28;20048;-75
2022/03/29 01:13:19;;;;;;;55.90;32.50;;;8.00;99.90;;;;;;5073368;28;20376;-75
2022/03/29 01:15:45;;;;;;;59.05;32.70;;;8.00;99.90;;;;;;5074210;28;20020;-75
2022/03/29 01:18:13;;;;;;;61.58;32.50;;;8.00;99.90;;;;;;5073819;28;20025;-75
2022/03/29 01:20:42;;;;;;;58.05;32.95;;;8.10;99.90;;;;;;5073417;28;20481;-75
2022/03/29 01:23:10;;;;;;;58.35;32.30;;;8.00;99.90;;;;;;5074014;28;20050;-76
2022/03/29 01:25:39;;;;;;;60.20;34.17;;;8.00;99.90;;;;;;5074571;28;20056;-75
2022/03/29 01:28:06;;;;;;;68.57;34.85;;;8.00;99.90;;;;;;5074173;28;20030;-75
2022/03/29 01:30:32;;;;;;;58.95;33.15;;;8.00;99.90;;;;;;5076678;28;20025;-75
2022/03/29 01:33:01;;;;;;;62.90;33.15;;;8.00;99.90;;;;;;5074466;28;20081;-75
2022/03/29 01:35:28;;;;;;;56.47;34.10;;;7.90;99.90;;;;;;5072968;28;20032;-76
2022/03/29 01:37:55;;;;;;;61.05;33.60;;;7.90;99.90;;;;;;5074784;28;20016;-75
2022/03/29 01:40:25;;;;;;;64.35;35.47;;;7.90;99.90;;;;;;5073893;28;20024;-76
2022/03/29 01:43:04;;;;;;;55.53;34.13;;;7.90;99.90;;;;;;5073496;28;20020;-76
2022/03/29 01:45:31;;;;;;;62.30;33.63;;;8.00;99.90;;;;;;5073464;28;20024;-75
2022/03/29 01:47:58;;;;;;;55.28;31.77;;;8.00;99.90;;;;;;5073196;28;20029;-75
2022/03/29 01:50:24;;;;;;;57.53;32.85;;;8.00;99.90;;;;;;5073809;28;20089;-75
2022/03/29 01:52:50;;;;;;;58.88;32.38;;;8.00;99.90;;;;;;5073646;28;20149;-75
2022/03/29 01:55:20;;;;;;;59.10;33.28;;;7.90;99.90;;;;;;5072530;28;20031;-75
2022/03/29 01:57:46;;;;;;;63.05;32.42;;;7.90;99.90;;;;;;5073302;28;20503;-75
2022/03/29 02:00:31;;;;;;;60.42;33.63;;;7.90;99.90;;;;;;5072933;28;20044;-75
2022/03/29 02:02:57;;;;;;;59.00;33.03;;;7.90;99.90;;;;;;5072434;28;20032;-75
2022/03/29 02:05:23;;;;;;;63.22;34.67;;;7.90;99.90;;;;;;5072862;28;20025;-75
2022/03/29 02:07:50;;;;;;;63.53;34.53;;;7.90;99.90;;;;;;5073036;28;20519;-75
2022/03/29 02:10:17;;;;;;;60.08;33.42;;;7.90;99.90;;;;;;5072143;28;20046;-75
2022/03/29 02:12:46;;;;;;;59.78;32.75;;;7.90;99.90;;;;;;5072895;28;20040;-75
2022/03/29 02:15:13;;;;;;;59.95;32.78;;;7.90;99.90;;;;;;5072932;28;20028;-76
2022/03/29 02:17:39;;;;;;;65.80;34.70;;;7.90;99.90;;;;;;5072463;28;20089;-76
2022/03/29 02:20:06;;;;;;;62.90;33.47;;;8.00;99.90;;;;;;5072961;28;20108;-75
2022/03/29 02:22:32;;;;;;;59.65;33.05;;;8.00;99.90;;;;;;5073087;28;20035;-75
2022/03/29 02:24:58;;;;;;;56.28;33.13;;;8.00;99.90;;;;;;5072458;28;20052;-75
2022/03/29 02:27:23;;;;;;;56.65;32.35;;;8.00;99.90;;;;;;5072350;28;20108;-75
2022/03/29 02:29:49;;;;;;;64.45;35.40;;;8.00;99.90;;;;;;5072865;28;20079;-75
2022/03/29 02:32:14;;;;;;;59.75;33.70;;;7.90;99.90;;;;;;5071840;28;20023;-75
2022/03/29 02:34:40;;;;;;;61.10;35.25;;;8.00;99.90;;;;;;5072568;28;20050;-75
2022/03/29 02:37:06;;;;;;;59.78;33.60;;;8.00;99.90;;;;;;5072680;28;20029;-75
2022/03/29 02:39:31;;;;;;;62.78;34.25;;;7.90;99.90;;;;;;5086074;28;20383;-76
2022/03/29 02:41:57;;;;;;;65.57;35.55;;;7.90;99.90;;;;;;5092805;28;20059;-75
2022/03/29 02:44:23;;;;;;;66.05;35.40;;;7.90;99.90;;;;;;5091915;28;20051;-75
2022/03/29 02:46:49;;;;;;;63.30;35.13;;;7.90;99.90;;;;;;5092888;28;20028;-76
2022/03/29 02:49:15;;;;;;;60.80;33.28;;;7.90;99.90;;;;;;5092474;28;20073;-75
2022/03/29 02:51:40;;;;;;;59.80;32.85;;;7.90;99.90;;;;;;5091878;28;20076;-75
2022/03/29 02:54:06;;;;;;;57.20;32.10;;;7.90;99.90;;;;;;5092448;28;20504;-74
2022/03/29 02:56:31;;;;;;;56.90;31.60;;;7.90;99.90;;;;;;5092570;28;20430;-74
2022/03/29 02:58:57;;;;;;;53.65;30.75;;;8.00;99.90;;;;;;5092117;28;20035;-75
2022/03/29 03:01:23;;;;;;;54.65;31.05;;;8.00;99.90;;;;;;5092070;28;20020;-75
2022/03/29 03:03:48;;;;;;;59.85;33.08;;;8.00;99.90;;;;;;5092406;28;20092;-75
2022/03/29 03:06:14;;;;;;;65.28;32.42;;;8.00;99.90;;;;;;5091502;28;20028;-75
2022/03/29 03:08:40;;;;;;;65.05;34.67;;;7.90;99.90;;;;;;5092163;28;20119;-76
2022/03/29 03:11:06;;;;;;;64.32;34.47;;;7.90;99.90;;;;;;5092431;28;20079;-76
2022/03/29 03:13:33;;;;;;;59.50;31.88;;;7.80;99.90;;;;;;5091674;28;20028;-74
2022/03/29 03:15:58;;;;;;;55.72;32.20;;;7.90;99.90;;;;;;5092510;28;20024;-75
2022/03/29 03:18:24;;;;;;;58.25;31.90;;;7.90;99.90;;;;;;5092126;28;20356;-75
2022/03/29 03:20:49;;;;;;;56.70;31.48;;;7.90;99.90;;;;;;5091966;28;20024;-75
2022/03/29 03:23:15;;;;;;;58.78;31.10;;;7.90;99.90;;;;;;5093745;28;20036;-75
2022/03/29 03:25:41;;;;;;;66.97;32.15;;;7.90;99.90;;;;;;5093421;28;20046;-75
2022/03/29 03:28:06;;;;;;;66.28;33.25;;;7.80;99.90;;;;;;5092229;28;20093;-76
2022/03/29 03:30:33;;;;;;;62.22;32.25;;;7.90;99.90;;;;;;5092975;28;20039;-74
2022/03/29 03:32:58;;;;;;;66.78;34.00;;;7.80;99.90;;;;;;5092214;28;20064;-75
2022/03/29 03:35:24;;;;;;;64.25;33.88;;;7.80;99.90;;;;;;5091005;28;20059;-75
2022/03/29 03:37:50;;;;;;;66.53;31.80;;;7.80;99.90;;;;;;5092049;28;20024;-75
2022/03/29 03:40:16;;;;;;;64.55;33.10;;;7.80;99.90;;;;;;5093243;28;20028;-75
2022/03/29 03:42:42;;;;;;;75.50;34.83;;;7.70;99.90;;;;;;5092248;28;20028;-75
2022/03/29 03:45:09;;;;;;;71.97;34.75;;;7.70;99.90;;;;;;5092059;28;20398;-75
2022/03/29 03:47:35;;;;;;;66.63;33.08;;;7.70;99.90;;;;;;5092049;28;20028;-75
2022/03/29 03:50:02;;;;;;;60.53;32.17;;;7.60;99.90;;;;;;5092779;28;20031;-75
2022/03/29 03:52:28;;;;;;;88.43;33.47;;;7.60;99.90;;;;;;5095678;28;20027;-75
2022/03/29 03:54:56;;;;;;;66.72;34.38;;;7.60;99.90;;;;;;5095337;28;20024;-75
2022/03/29 03:57:22;;;;;;;59.35;31.92;;;7.60;99.90;;;;;;5095885;28;20043;-75
2022/03/29 03:59:49;;;;;;;69.13;35.28;;;7.60;99.90;;;;;;5096062;28;20468;-75
2022/03/29 04:02:15;;;;;;;81.88;32.70;;;7.60;99.90;;;;;;5095151;28;20024;-75
2022/03/29 04:04:41;;;;;;;71.75;32.33;;;7.60;99.90;;;;;;5096207;28;20173;-75
2022/03/29 04:07:06;;;;;;;77.10;33.42;;;7.60;99.90;;;;;;5095704;28;20047;-75
2022/03/29 04:09:35;;;;;;;74.10;33.58;;;7.50;99.90;;;;;;5094822;28;20079;-75
2022/03/29 04:12:02;;;;;;;68.20;33.42;;;7.50;99.90;;;;;;5096213;28;20075;-75
2022/03/29 04:14:28;;;;;;;74.90;34.13;;;7.50;99.90;;;;;;5095770;28;20051;-75
2022/03/29 04:16:56;;;;;;;81.28;34.42;;;7.50;99.90;;;;;;5095414;28;20065;-75
2022/03/29 04:19:21;;;;;;;73.72;35.60;;;7.50;99.90;;;;;;5095390;28;20077;-75
2022/03/29 04:21:47;;;;;;;75.10;35.63;;;7.50;99.90;;;;;;5095756;28;20397;-75
2022/03/29 04:24:13;;;;;;;89.25;35.50;;;7.50;99.90;;;;;;5094977;28;20040;-75
2022/03/29 04:26:39;;;;;;;78.63;37.38;;;7.50;99.90;;;;;;5095830;28;20429;-75
2022/03/29 04:29:05;;;;;;;77.50;35.55;;;7.50;99.90;;;;;;5095630;28;20028;-75
2022/03/29 04:31:30;;;;;;;72.63;33.83;;;7.50;99.90;;;;;;5094481;28;20021;-75
2022/03/29 04:33:58;;;;;;;69.93;33.97;;;7.50;99.90;;;;;;5095208;28;20039;-75
2022/03/29 04:36:24;;;;;;;67.20;34.40;;;7.50;99.90;;;;;;5094789;28;20359;-75
2022/03/29 04:38:50;;;;;;;85.38;34.58;;;7.50;99.90;;;;;;5094741;28;20032;-75
2022/03/29 04:41:16;;;;;;;73.60;35.67;;;7.50;99.90;;;;;;5095174;28;20433;-75
2022/03/29 04:43:41;;;;;;;69.93;34.22;;;7.60;99.90;;;;;;5094939;28;20046;-76
2022/03/29 04:46:07;;;;;;;91.07;35.78;;;7.50;99.90;;;;;;5094328;28;20028;-75
2022/03/29 04:48:32;;;;;;;90.00;35.72;;;7.50;99.90;;;;;;5095150;28;20369;-75
2022/03/29 04:50:58;;;;;;;69.32;35.63;;;7.50;99.90;;;;;;5094326;28;20447;-75
2022/03/29 04:53:24;;;;;;;76.32;35.55;;;7.40;99.90;;;;;;5094787;28;20084;-75
2022/03/29 04:55:50;;;;;;;83.70;37.20;;;7.40;99.90;;;;;;5095222;28;20020;-75
2022/03/29 04:58:16;;;;;;;79.75;37.50;;;7.50;99.90;;;;;;5094551;28;20416;-76
2022/03/29 05:00:42;;;;;;;77.25;35.72;;;7.50;99.90;;;;;;5095375;28;20024;-75
2022/03/29 05:03:08;;;;;;;76.60;36.10;;;7.50;99.90;;;;;;5094259;28;20024;-76
2022/03/29 05:05:34;;;;;;;68.93;33.00;;;7.50;99.90;;;;;;5094522;28;20383;-75
2022/03/29 05:07:59;;;;;;;80.75;35.58;;;7.50;99.90;;;;;;5094914;28;20123;-75
2022/03/29 05:10:25;;;;;;;75.45;34.00;;;7.60;99.90;;;;;;5099585;28;20459;-75
2022/03/29 05:12:54;;;;;;;95.10;34.17;;;7.60;99.90;;;;;;5096861;28;20391;-75
2022/03/29 05:15:20;;;;;;;75.60;32.72;;;7.60;99.90;;;;;;5094168;28;20024;-75
2022/03/29 05:17:46;;;;;;;90.25;35.35;;;7.50;99.90;;;;;;5093492;28;20070;-75
2022/03/29 05:20:14;;;;;;;96.13;34.90;;;7.40;99.90;;;;;;5076985;28;20020;-76
2022/03/29 05:22:45;;;;;;;72.65;36.13;;;7.40;99.90;;;;;;5072771;28;20017;-75
2022/03/29 05:25:12;;;;;;;90.18;35.45;;;7.40;99.90;;;;;;5071994;28;20063;-75
2022/03/29 05:27:38;;;;;;;74.72;35.72;;;7.40;99.90;;;;;;5071693;28;20027;-75
2022/03/29 05:30:04;;;;;;;78.28;35.67;;;7.40;99.90;;;;;;5073445;28;20078;-76
2022/03/29 05:32:30;;;;;;;88.05;34.63;;;7.40;99.90;;;;;;5072980;28;20044;-77
2022/03/29 05:34:56;;;;;;;68.80;33.78;;;7.40;99.90;;;;;;5072646;28;20077;-74
2022/03/29 05:37:22;;;;;;;66.03;31.95;;;7.40;99.90;;;;;;5071771;28;20017;-75
2022/03/29 05:39:48;;;;;;;62.05;30.17;;;7.50;99.90;;;;;;5072682;28;20048;-74
2022/03/29 05:42:14;;;;;;;70.63;31.90;;;7.40;99.90;;;;;;5071814;28;20492;-75
2022/03/29 05:44:39;;;;;;;67.53;33.22;;;7.40;99.90;;;;;;5073640;28;20074;-74
2022/03/29 05:49:50;;;;;;;69.57;32.33;;;7.40;99.90;;;;;;5075089;28;20497;-75
2022/03/29 05:52:21;;;;;;;66.25;30.10;;;7.40;99.90;;;;;;5073282;28;20025;-75
2022/03/29 05:54:47;;;;;;;94.88;32.47;;;7.40;99.90;;;;;;5071731;28;20020;-75
2022/03/29 05:57:16;;;;;;;70.70;33.03;;;7.40;99.90;;;;;;5071998;28;20020;-75
2022/03/29 05:59:43;;;;;;;87.25;31.92;;;7.40;99.90;;;;;;5072065;28;20031;-75
2022/03/29 06:02:09;;;;;;;60.72;30.30;;;7.30;99.90;;;;;;5070994;28;20484;-75
2022/03/29 06:04:35;;;;;;;57.15;28.95;;;7.30;99.90;;;;;;5071517;28;20112;-75
2022/03/29 06:07:02;;;;;;;63.05;31.30;;;7.30;99.90;;;;;;5072193;28;20029;-75
2022/03/29 06:09:27;;;;;;;56.03;29.45;;;7.30;99.90;;;;;;5071062;28;20041;-76
2022/03/29 06:11:53;;;;;;;62.53;30.77;;;7.40;99.90;;;;;;5071634;28;20103;-76
2022/03/29 06:14:20;;;;;;;61.90;31.60;;;7.40;99.90;;;;;;5071378;28;20388;-76
2022/03/29 06:16:45;;;;;;;66.10;30.95;;;7.40;99.90;;;;;;5071596;28;20016;-76
2022/03/29 06:19:11;;;;;;;56.90;29.23;;;7.50;99.90;;;;;;5072036;28;20230;-76
2022/03/29 06:21:37;;;;;;;61.92;29.52;;;7.50;99.90;;;;;;5072370;28;20525;-75
2022/03/29 06:24:08;;;;;;;58.85;29.40;;;7.40;99.90;;;;;;5071194;28;20388;-75
2022/03/29 06:26:37;;;;;;;50.28;28.40;;;7.40;99.90;;;;;;5071514;28;20032;-76
2022/03/29 06:29:03;;;;;;;54.00;28.38;;;7.50;99.90;;;;;;5071555;28;20047;-75
2022/03/29 06:31:29;;;;;;;53.63;27.42;;;7.40;99.90;;;;;;5087014;28;20430;-74
2022/03/29 06:33:54;;;;;;;53.28;28.85;;;7.50;99.90;;;;;;5091630;28;20024;-74
2022/03/29 06:36:20;;;;;;;52.72;28.42;;;7.50;99.90;;;;;;5090813;28;20058;-76
2022/03/29 06:38:46;;;;;;;47.45;26.27;;;7.60;99.90;;;;;;5073135;28;20024;-75
2022/03/29 06:41:13;;;;;;;55.58;28.90;;;7.60;99.90;;;;;;5070899;28;20029;-74
2022/03/29 06:43:39;;;;;;;54.83;28.25;;;7.70;99.90;;;;;;5070229;28;20190;-76
2022/03/29 06:46:07;;;;;;;53.90;27.38;;;7.70;99.90;;;;;;5074201;28;20016;-78
2022/03/29 06:48:33;;;;;;;49.97;29.17;;;7.70;99.90;;;;;;5069129;28;20574;-77
2022/03/29 06:50:58;;;;;;;48.85;26.80;;;7.70;99.90;;;;;;5068413;28;20024;-77
2022/03/29 06:53:24;;;;;;;56.15;28.35;;;7.70;99.90;;;;;;5070989;28;20021;-78
2022/03/29 06:55:51;;;;;;;59.30;30.55;;;7.70;99.90;;;;;;5071149;28;20017;-78
2022/03/29 06:58:17;;;;;;;51.42;28.38;;;7.80;99.90;;;;;;5069978;28;20032;-78
2022/03/29 07:00:43;;;;;;;52.83;26.63;;;7.80;99.90;;;;;;5071279;28;20099;-78
2022/03/29 07:03:10;;;;;;;53.38;28.30;;;7.80;99.90;;;;;;5071807;28;20099;-78
2022/03/29 07:05:38;;;;;;;49.03;27.65;;;7.80;99.90;;;;;;5071463;28;20028;-78
2022/03/29 07:08:05;;;;;;;47.03;26.88;;;7.80;99.90;;;;;;5075230;28;20522;-77
2022/03/29 07:13:14;;;;;;;52.45;28.02;;;7.80;99.90;;;;;;5091818;28;20054;-78
2022/03/29 07:15:40;;;;;;;52.55;26.98;;;7.90;99.90;;;;;;5092301;28;20479;-77
2022/03/29 07:18:06;;;;;;;55.17;26.85;;;7.90;99.90;;;;;;5092519;28;20392;-76
2022/03/29 07:20:31;;;;;;;52.38;28.50;;;7.90;99.90;;;;;;5091634;28;20498;-76
2022/03/29 07:22:57;;;;;;;56.75;26.80;;;7.90;99.90;;;;;;5092240;28;20112;-77
2022/03/29 07:25:25;;;;;;;55.20;28.15;;;7.80;99.90;;;;;;5091207;28;20359;-77
2022/03/29 07:27:53;;;;;;;47.05;26.15;;;7.80;99.90;;;;;;5091466;28;20476;-76
2022/03/29 07:30:19;;;;;;;56.30;28.65;;;7.70;99.90;;;;;;5092199;28;20103;-78
2022/03/29 07:32:47;;;;;;;58.28;28.13;;;7.70;99.90;;;;;;5091762;28;20027;-76
2022/03/29 07:35:15;;;;;;;55.22;27.65;;;7.80;99.90;;;;;;5091903;28;20057;-77
2022/03/29 07:37:41;;;;;;;52.80;27.08;;;7.80;99.90;;;;;;5092104;28;20024;-77
2022/03/29 07:40:08;;;;;;;55.03;28.30;;;7.70;99.90;;;;;;5092421;28;20524;-76
2022/03/29 07:42:35;;;;;;;56.17;30.20;;;7.80;99.90;;;;;;5091945;28;20069;-76
2022/03/29 07:45:03;;;;;;;61.05;28.25;;;7.80;99.90;;;;;;5083884;28;20434;-77
2022/03/29 07:47:29;;;;;;;62.53;28.98;;;7.80;99.90;;;;;;5098544;28;20031;-76
2022/03/29 07:49:57;;;;;;;63.22;29.48;;;7.80;99.90;;;;;;5099766;28;20020;-76
2022/03/29 07:52:23;;;;;;;54.42;27.25;;;7.80;99.90;;;;;;5110254;28;20028;-78
2022/03/29 07:54:49;;;;;;;61.88;30.42;;;7.90;99.90;;;;;;5110056;28;20352;-77
2022/03/29 07:57:14;;;;;;;61.60;30.70;;;7.90;99.90;;;;;;5105559;28;20063;-75
2022/03/29 07:59:40;;;;;;;54.72;27.83;;;8.00;99.90;;;;;;5109473;28;20027;-81
2022/03/29 08:02:05;;;;;;;59.38;28.55;;;8.00;99.90;;;;;;5106007;28;20417;-78
2022/03/29 08:04:32;;;;;;;54.45;27.67;;;8.00;99.90;;;;;;5110187;28;20167;-78
2022/03/29 08:06:58;;;;;;;57.85;29.25;;;7.90;99.90;;;;;;5112171;28;20480;-76
2022/03/29 08:09:26;;;;;;;53.22;27.15;;;8.00;99.90;;;;;;5109749;28;20555;-77
2022/03/29 08:11:51;;;;;;;49.30;26.23;;;8.00;99.90;;;;;;5112142;28;20035;-78
2022/03/29 08:14:18;;;;;;;53.20;25.92;;;7.90;99.90;;;;;;5112347;28;20024;-77
2022/03/29 08:16:43;;;;;;;50.20;27.52;;;8.00;99.90;;;;;;5111716;28;20043;-78
2022/03/29 08:19:09;;;;;;;45.92;24.73;;;8.00;99.90;;;;;;5111884;28;20054;-78
2022/03/29 08:21:50;;;;;;;51.97;26.52;;;8.10;99.90;;;;;;5112215;28;20012;-78
2022/03/29 08:24:20;;;;;;;52.80;26.05;;;8.20;99.90;;;;;;5085759;28;20036;-78
2022/03/29 08:26:48;;;;;;;50.55;26.40;;;8.30;99.90;;;;;;5071965;28;20024;-79
2022/03/29 08:29:16;;;;;;;46.47;23.58;;;8.20;99.90;;;;;;5069807;28;20052;-78
2022/03/29 08:31:42;;;;;;;52.08;25.83;;;8.30;99.90;;;;;;5071629;28;20025;-78
2022/03/29 08:34:08;;;;;;;45.05;24.98;;;8.20;99.90;;;;;;5072420;28;20078;-77
2022/03/29 08:36:36;;;;;;;46.92;27.17;;;8.20;99.90;;;;;;5074122;28;20030;-77
2022/03/29 08:39:03;;;;;;;44.83;24.67;;;8.20;99.90;;;;;;5076416;28;20016;-77
2022/03/29 08:41:36;;;;;;;48.85;25.27;;;8.20;99.90;;;;;;5074990;28;20103;-76
2022/03/29 08:44:01;;;;;;;49.25;26.73;;;8.20;99.90;;;;;;5074381;28;20044;-76
2022/03/29 08:46:38;;;;;;;48.40;25.15;;;8.20;99.90;;;;;;5094504;28;20024;-76
2022/03/29 08:49:06;;;;;;;56.95;27.48;;;8.20;99.90;;;;;;5096150;28;20074;-76
2022/03/29 08:51:32;;;;;;;55.60;27.30;;;8.30;99.90;;;;;;5094023;28;20020;-76
2022/03/29 08:53:59;;;;;;;44.35;24.08;;;8.30;99.90;;;;;;5074302;28;20020;-76
2022/03/29 08:56:24;;;;;;;43.35;24.55;;;8.40;99.90;;;;;;5076560;28;20020;-76
2022/03/29 08:58:51;;;;;;;48.20;26.25;;;8.50;99.90;;;;;;5075754;28;20035;-77
2022/03/29 09:01:21;;;;;;;43.97;24.80;;;8.50;99.90;;;;;;5072997;28;20023;-76
2022/03/29 09:04:07;;;;;;;44.40;25.13;;;8.60;99.90;;;;;;5073292;28;20107;-77
2022/03/29 09:06:33;;;;;;;44.28;23.80;;;8.60;99.90;;;;;;5074146;28;20024;-78
2022/03/29 09:08:59;;;;;;;43.28;23.63;;;8.70;99.90;;;;;;5076434;28;20403;-79
2022/03/29 09:11:24;;;;;;;43.47;24.58;;;8.70;99.90;;;;;;5075932;28;20009;-77
2022/03/29 09:14:03;;;;;;;46.10;24.40;;;8.80;99.90;;;;;;5074519;28;20032;-76
2022/03/29 09:16:31;;;;;;;39.13;23.25;;;8.80;99.90;;;;;;5074320;28;20108;-76
2022/03/29 09:18:58;;;;;;;39.05;23.63;;;8.80;99.90;;;;;;5073837;28;20027;-77
2022/03/29 09:21:24;;;;;;;41.78;23.52;;;8.90;99.90;;;;;;5073714;28;20130;-76
2022/03/29 09:24:09;;;;;;;44.10;24.50;;;8.80;99.90;;;;;;5074112;28;20377;-77
2022/03/29 09:26:41;;;;;;;43.95;23.75;;;8.80;99.90;;;;;;5073470;28;20060;-76
2022/03/29 09:29:14;;;;;;;48.95;24.20;;;8.80;99.90;;;;;;5073752;28;20514;-74
2022/03/29 09:31:41;;;;;;;48.63;25.15;;;8.80;99.90;;;;;;5073492;28;20048;-75
2022/03/29 09:34:15;;;;;;;44.83;23.85;;;8.90;99.90;;;;;;5071922;28;20514;-74
2022/03/29 09:36:48;;;;;;;45.97;25.75;;;9.00;99.90;;;;;;5090536;28;20027;-74
2022/03/29 09:39:39;;;;;;;43.08;24.05;;;9.00;99.90;;;;;;5092277;28;20036;-75
2022/03/29 09:42:11;;;;;;;44.05;25.67;;;8.90;99.90;;;;;;5072861;28;20024;-74
2022/03/29 09:44:43;;;;;;;44.70;25.60;;;9.00;99.90;;;;;;5072374;28;20024;-74
2022/03/29 09:47:12;;;;;;;45.40;25.55;;;9.00;99.90;;;;;;5074735;28;20040;-74
2022/03/29 09:49:59;;;;;;;48.42;25.17;;;8.90;99.90;;;;;;5071996;28;20065;-73
2022/03/29 09:52:25;;;;;;;48.15;26.55;;;8.90;99.90;;;;;;5080648;28;20032;-74
2022/03/29 09:55:13;;;;;;;42.00;24.50;;;9.00;99.90;;;;;;5071343;28;20385;-73
2022/03/29 09:57:55;;;;;;;46.10;24.85;;;9.10;99.90;;;;;;5092006;28;20017;-74
2022/03/29 10:00:30;;;;;;;46.58;25.20;;;9.20;99.90;;;;;;5091288;28;20019;-74
2022/03/29 10:02:55;;;;;;;45.05;25.10;;;9.30;99.90;;;;;;5092436;28;20016;-74
2022/03/29 10:05:23;;;;;;;47.72;25.55;;;9.20;99.90;;;;;;5091812;28;20383;-73
2022/03/29 10:10:54;;;;;;;44.40;26.52;;;9.20;99.90;;;;;;5092649;28;20097;-74
2022/03/29 10:13:23;;;;;;;46.67;26.48;;;9.30;99.90;;;;;;5077858;28;20031;-74
2022/03/29 10:15:49;;;;;;;47.42;26.10;;;9.40;99.90;;;;;;5071357;28;20040;-74
2022/03/29 10:18:15;;;;;;;46.10;25.63;;;9.40;99.90;;;;;;5074559;28;20024;-74
2022/03/29 10:20:41;;;;;;;42.88;24.05;;;9.60;99.90;;;;;;5072019;28;20415;-74
2022/03/29 10:23:11;;;;;;;44.60;25.90;;;9.80;99.90;;;;;;5073882;28;20035;-73
2022/03/29 10:25:38;;;;;;;46.03;26.83;;;9.90;99.90;;;;;;5072031;28;20020;-73
2022/03/29 10:28:05;;;;;;;44.50;26.50;;;10.00;99.90;;;;;;5071335;28;20060;-73
2022/03/29 10:30:35;;;;;;;49.85;27.05;;;10.00;99.90;;;;;;5070903;28;20028;-74
2022/03/29 10:33:19;;;;;;;;;;;10.00;99.90;;;;;;5072884;28;20044;-73
2022/03/29 10:36:09;;;;;;;49.10;27.35;;;9.90;99.90;;;;;;5072289;28;19915;-74
2022/03/29 10:38:47;;;;;;;50.80;25.42;;;9.90;99.90;;;;;;5063036;28;20495;-73
2022/03/29 10:41:30;;;;;;;46.20;27.17;;;9.80;99.90;;;;;;5072488;28;20072;-74
2022/03/29 10:44:01;;;;;;;48.67;27.20;;;9.70;99.90;;;;;;5071962;28;20064;-75
2022/03/29 10:46:54;;;;;;;47.60;26.80;;;9.80;99.90;;;;;;5072434;28;20031;-74
2022/03/29 10:49:28;;;;;;;50.50;27.65;;;9.80;99.90;;;;;;5068800;28;20040;-74
2022/03/29 10:52:05;;;;;;;44.58;27.00;;;9.80;99.90;;;;;;5072896;28;20036;-74
2022/03/29 10:54:41;;;;;;;48.00;29.02;;;9.80;99.90;;;;;;5072372;28;20017;-74
2022/03/29 10:57:14;;;;;;;47.72;27.77;;;9.80;99.90;;;;;;5071434;28;20036;-73
2022/03/29 10:59:40;;;;;;;46.15;26.75;;;9.80;99.90;;;;;;5071642;28;20361;-73
2022/03/29 11:02:19;;;;;;;45.85;27.20;;;9.80;99.90;;;;;;5072203;28;20046;-73
2022/03/29 11:05:07;;;;;;;47.00;28.13;;;9.70;99.90;;;;;;5074071;28;20084;-73
2022/03/29 11:07:38;;;;;;;44.88;27.70;;;9.90;99.90;;;;;;5087659;28;20106;-73
2022/03/29 11:10:23;;;;;;;51.15;29.33;;;10.00;99.90;;;;;;5102403;28;20084;-73
2022/03/29 11:12:53;;;;;;;49.55;27.60;;;10.00;99.90;;;;;;5100923;28;20030;-72
2022/03/29 11:15:24;;;;;;;55.30;27.60;;;10.00;99.90;;;;;;5110978;28;20098;-73
2022/03/29 11:17:55;;;;;;;48.70;28.75;;;10.20;99.90;;;;;;5110467;28;20031;-73
2022/03/29 11:20:38;;;;;;;52.60;28.92;;;10.30;99.90;;;;;;5106506;28;20630;-73
2022/03/29 11:23:10;;;;;;;44.70;26.20;;;10.50;99.90;;;;;;5111052;28;20033;-73
2022/03/29 11:25:45;;;;;;;49.20;27.85;;;10.70;99.90;;;;;;5110278;28;20038;-73
2022/03/29 11:28:17;;;;;;;46.45;28.48;;;10.80;99.90;;;;;;5106331;28;20030;-73
2022/03/29 11:30:43;;;;;;;52.88;27.17;;;10.80;99.90;;;;;;5111066;28;20023;-73
2022/03/29 11:33:11;;;;;;;43.45;27.40;;;10.90;99.90;;;;;;5109598;28;20031;-73
2022/03/29 11:35:38;;;;;;;46.88;28.42;;;11.00;99.90;;;;;;5110796;28;20436;-73
2022/03/29 11:38:09;;;;;;;48.30;29.63;;;11.20;99.90;;;;;;5110979;28;20032;-73
2022/03/29 11:40:36;;;;;;;;;;;11.40;99.90;;;;;;5110649;28;20016;-74
2022/03/29 11:43:05;;;;;;;48.88;29.10;;;11.50;99.90;;;;;;5111020;28;19907;-73
2022/03/29 11:45:36;;;;;;;48.17;28.15;;;11.60;99.90;;;;;;5110764;28;20061;-74
2022/03/29 11:48:04;;;;;;;42.97;27.63;;;11.70;99.90;;;;;;5110181;28;20047;-73
2022/03/29 11:50:34;;;;;;;50.40;29.63;;;11.70;99.90;;;;;;5110021;28;20414;-73
2022/03/29 11:52:59;;;;;;;50.88;29.33;;;11.90;99.90;;;;;;5110106;28;20470;-73
2022/03/29 11:55:25;;;;;;;50.25;28.70;;;12.20;99.90;;;;;;5110445;28;20030;-73
2022/03/29 11:57:52;;;;;;;46.33;29.02;;;12.40;99.90;;;;;;5110723;28;20022;-73
2022/03/29 12:00:27;;;;;;;48.20;28.42;;;12.60;99.90;;;;;;5109642;28;20055;-73
2022/03/29 12:02:53;;;;;;;52.40;30.25;;;12.70;99.90;;;;;;5110612;28;20077;-73
2022/03/29 12:05:20;;;;;;;43.10;27.58;;;12.60;99.90;;;;;;5110147;28;20035;-73
2022/03/29 12:07:46;;;;;;;40.92;28.50;;;12.60;99.90;;;;;;5108937;28;20127;-72
2022/03/29 12:10:24;;;;;;;47.58;28.17;;;12.60;99.90;;;;;;5111257;28;20193;-74
2022/03/29 12:12:50;;;;;;;46.10;27.63;;;12.60;99.90;;;;;;5114988;28;20508;-73
2022/03/29 12:15:19;;;;;;;48.55;28.65;;;12.50;99.90;;;;;;5113712;28;20023;-73
2022/03/29 12:20:44;;;;;;;45.30;28.73;;;12.70;99.90;;;;;;5087293;28;20039;-73
2022/03/29 12:23:28;;;;;;;38.60;25.75;;;12.80;99.90;;;;;;5088537;28;20392;-73
2022/03/29 12:25:55;;;;;;;47.28;28.50;;;13.00;99.90;;;;;;5090918;28;20146;-74
2022/03/29 12:28:22;;;;;;;45.13;28.02;;;13.00;99.90;;;;;;5087619;28;20044;-74
2022/03/29 12:30:49;;;;;;;44.70;26.08;;;13.00;99.90;;;;;;5098647;28;20082;-72
2022/03/29 12:33:15;;;;;;;43.10;27.55;;;13.00;99.90;;;;;;5088649;28;20067;-74
2022/03/29 12:35:41;;;;;;;46.03;27.23;;;12.90;99.90;;;;;;5087806;28;20118;-76
2022/03/29 12:38:10;;;;;;;44.95;27.90;;;12.70;99.90;;;;;;5090156;28;20383;-74
2022/03/29 12:40:39;;;;;;;41.67;25.20;;;12.60;99.90;;;;;;5085752;28;20085;-74
2022/03/29 12:43:07;;;;;;;39.15;25.02;;;12.60;99.90;;;;;;5082359;28;20017;-75
2022/03/29 12:45:34;;;;;;;37.40;24.23;;;12.60;99.90;;;;;;5103579;28;20096;-75
2022/03/29 12:48:01;;;;;;;39.60;25.20;;;12.50;99.90;;;;;;5113661;28;20104;-75
2022/03/29 12:50:28;;;;;;;33.78;22.65;;;12.60;99.90;;;;;;5112014;28;20475;-76